UNGO2: Muddy Boggy, Unger, OK

                                SHEF ID:       UNGO2     Muddy Boggy Creek near Unger, OK
STATION TYPE:
Regulating: Stage = 39.00, Flow = 17600

PRECIP STAGE STAGE(2) RIV-FLOW BAT-LOAD
in ft ft cfs volt
Ccp-Rev Ccp-Rev Ccp-Rev Ccp-Rev Ccp-Rev
(America/Chicago)
04/30 00:00 0.00 22.27 ---- 4210 12.97
04/30 01:00 0.00 22.23 ---- 4190 12.89
04/30 02:00 0.00 22.17 ---- 4160 12.89
04/30 03:00 0.00 22.09 ---- 4120 12.89
04/30 04:00 0.00 22.00 ---- 4080 12.89
04/30 05:00 0.00 21.90 ---- 4030 12.89
04/30 06:00 0.00 21.79 ---- 3980 12.81
04/30 07:00 0.00 21.67 ---- 3920 12.81
04/30 08:00 0.00 21.55 ---- 3870 12.81
04/30 09:00 0.00 21.40 ---- 3800 12.97
04/30 10:00 0.00 21.25 ---- 3730 13.21
04/30 11:00 0.00 21.10 ---- 3660 13.37
04/30 12:00 0.00 20.94 ---- 3590 13.37
04/30 13:00 0.00 20.79 ---- 3520 13.29
04/30 14:00 0.00 20.63 ---- 3450 13.29
04/30 15:00 0.00 20.48 ---- 3380 13.21
04/30 16:00 0.00 20.32 ---- 3310 13.21
04/30 17:00 0.00 20.17 ---- 3250 13.21
04/30 18:00 0.00 20.02 ---- 3180 13.21
04/30 19:00 0.00 19.89 ---- 3130 13.13
04/30 20:00 0.00 19.75 ---- 3070 13.05
04/30 21:00 0.06 19.63 ---- 3020 12.97
04/30 22:00 0.02 19.53 ---- 2980 12.97
04/30 23:00 ---- ---- ---- ---- ----
Data processed at Fri 01May2026 03:47 GMT

NOTICE: If you are parsing this page

Please convert to using our Data API. Starting early 2026 we will be migrating to: https://water.usace.army.mil with modern pages rendered in JavaScript. When this migration completes you will no longer be able to scrape this page! CWMSDataAPI (CDA)

Timeseries IDs (TSIDs)

TSIDs used from left to right in the data table
UNGE.Precip-Inc.Total.1Hour.1Hour.Ccp-Rev
UNGE.Stage.Inst.1Hour.0.Ccp-Rev
UNGE.Stage-Alt.Inst.1Hour.0.Ccp-Rev
UNGE.Flow.Inst.1Hour.0.Ccp-Rev
UNGE.Volt-Battery Load.Inst.1Hour.0.Ccp-Rev

                            

All information presented herein is the property of the government of the United States of America and may be revised or deleted at any time without prior notice. Dissemination of this information without the expressed written consent of the Public Affairs Office, Tulsa District U.S. Army Corps of Engineers is strictly prohibited. These data are gathered electronically and, as presented, have NOT undergone any form of quality control. These data are NOT guaranteed to be valid or correct.